Duluth, MN

8:42 AM CST on February 06, 2016 (GMT -0600)
Chester Park WX | | Change Station
CLOSE
Current Station
Personal Weather Station
Location: Duluth, MN
Elevation: 1040 ft
Nearby Weather Stations

Elev 1040 ft 46.81 °N, 92.08 °W | Updated 2 minutes ago

Overcast
Overcast
21.6 °F
Feels Like 22 °F
N
3.0
Wind Variable Wind from South
Gusts 5.0 mph

Today
High -- | Low -- °F
--% Chance of Precip.
Yesterday
High -- | Low -- °F
Precip. -- in
Pressure 30.07 in
Visibility 6.0 miles
Clouds Few 6500 ft
Overcast 11000 ft
Windchill 22 °F
Dew Point 19 °F
Humidity 90%
Rainfall 0.00 in
Snow Depth Not available.
7:26 AM 5:18 PM
Waning Crescent, 5% visible
METAR KDLH 061355Z 22008KT 6SM BR FEW065 OVC110 M07/M09 A2999 RMK AO2 SLP182 T10671089
Pressure 30.07 in
Visibility 6.0 miles
Clouds Few 6500 ft
Overcast 11000 ft
Windchill 22 °F
Dew Point 19 °F
Humidity 90%
Rainfall 0.00 in
Snow Depth Not available.
7:26 AM 5:18 PM
Waning Crescent, 5% visible
METAR KDLH 061355Z 22008KT 6SM BR FEW065 OVC110 M07/M09 A2999 RMK AO2 SLP182 T10671089

10-Day Weather Forecast

Almanac

Astronomy

Feb. 06, 2016 Rise Set
Actual Time
Civil Twilight
Nautical Twilight
Astronomical Twilight
Moon
Length of Visible Light
Length of Day
Tomorrow will be .
, % of the Moon is Illuminated

Today's Extremes

State Highs State Lows

Community

WunderPhotos

Upload Photos

1,890,983 photos uploaded!

WunderBlog® & News

Nearby

Air Quality

  Air Quality AQ Index Pollutant
Not available.

Snow Depth

Station Depth Elevation

Earthquake Activity

City Distance Mag. Time & Date
Minimum magnitude displayed is 2.5.

Coastal Water Temperatures

Place Temperature

Stations

Nearby Weather Stations

Station Location Temp. Windchill Dew Point Humidity Wind Precip. Elev Updated Type
                   

Watches & Warnings

There are currently no watches in effect.